createdAt,value
2023-04-29T00:00:54.706Z,99.40
2023-04-29T00:03:22.688Z,99.43
2023-04-29T00:05:50.849Z,99.19
2023-04-29T00:08:18.530Z,99.32
2023-04-29T00:10:46.125Z,99.18
2023-04-29T00:13:14.203Z,99.10
2023-04-29T00:15:43.101Z,99.20
2023-04-29T00:18:12.199Z,98.87
2023-04-29T00:20:40.955Z,99.06
2023-04-29T00:23:08.702Z,99.27
2023-04-29T00:25:38.272Z,98.84
2023-04-29T00:28:06.489Z,98.87
2023-04-29T00:30:34.670Z,98.60
2023-04-29T00:33:02.510Z,98.76
2023-04-29T00:35:31.777Z,98.98
2023-04-29T00:37:59.483Z,99.39
2023-04-29T00:40:28.733Z,99.59
2023-04-29T00:42:57.106Z,99.74
2023-04-29T00:45:25.026Z,99.83
2023-04-29T00:47:52.984Z,100.00
2023-04-29T00:50:20.947Z,99.51
2023-04-29T00:52:50.358Z,100.00
2023-04-29T00:55:18.656Z,99.52
2023-04-29T00:57:48.217Z,99.36
2023-04-29T01:00:17.203Z,98.97
2023-04-29T01:02:46.014Z,99.05
2023-04-29T01:05:15.027Z,98.90
2023-04-29T01:07:49.898Z,98.96
2023-04-29T01:10:27.941Z,98.91
2023-04-29T01:13:02.030Z,98.87
2023-04-29T01:15:33.934Z,98.99
2023-04-29T01:18:06.821Z,98.50
2023-04-29T01:20:37.857Z,98.60
2023-04-29T01:23:06.264Z,98.32
2023-04-29T01:25:35.557Z,98.52
2023-04-29T01:28:15.657Z,98.65
2023-04-29T01:30:51.456Z,98.63
2023-04-29T01:33:29.813Z,98.35
2023-04-29T01:36:09.129Z,98.36
2023-04-29T01:38:43.152Z,98.40
2023-04-29T01:41:17.170Z,98.34
2023-04-29T01:43:49.480Z,98.45
2023-04-29T01:46:19.584Z,98.02
2023-04-29T01:48:47.641Z,97.82
2023-04-29T01:51:15.307Z,97.81
2023-04-29T01:53:43.278Z,97.64
2023-04-29T01:56:10.968Z,97.02
2023-04-29T01:58:39.964Z,97.04
2023-04-29T02:01:10.288Z,96.79
2023-04-29T02:03:38.106Z,96.68
2023-04-29T02:06:07.250Z,96.44
2023-04-29T02:08:34.935Z,96.23
2023-04-29T02:11:02.691Z,96.30
2023-04-29T02:13:30.348Z,95.41
2023-04-29T02:15:59.355Z,94.92
2023-04-29T02:18:27.018Z,94.92
2023-04-29T02:21:01.653Z,94.57
2023-04-29T02:23:29.494Z,95.01
2023-04-29T02:25:57.304Z,95.14
2023-04-29T02:28:25.141Z,95.20
2023-04-29T02:30:52.892Z,94.77
2023-04-29T02:33:21.948Z,94.75
2023-04-29T02:35:49.713Z,94.67
2023-04-29T02:38:17.577Z,94.86
2023-04-29T02:40:46.245Z,94.89
2023-04-29T02:43:14.452Z,94.89
2023-04-29T02:45:42.162Z,95.11
2023-04-29T02:48:09.839Z,95.04
2023-04-29T02:50:38.866Z,95.21
2023-04-29T02:53:06.470Z,94.84
2023-04-29T02:55:34.355Z,94.82
2023-04-29T02:58:02.076Z,94.83
2023-04-29T03:00:29.781Z,94.96
2023-04-29T03:02:57.651Z,95.04
2023-04-29T03:05:25.611Z,95.10
2023-04-29T03:07:54.632Z,94.63
2023-04-29T03:10:22.383Z,94.36
2023-04-29T03:12:50.063Z,95.00
2023-04-29T03:15:18.159Z,94.68
2023-04-29T03:17:46.523Z,94.54
2023-04-29T03:20:14.286Z,94.88
2023-04-29T03:22:42.297Z,94.22
2023-04-29T03:25:11.597Z,94.38
2023-04-29T03:27:39.325Z,94.51
2023-04-29T03:30:08.892Z,94.41
2023-04-29T03:32:36.522Z,95.24
2023-04-29T03:35:05.300Z,95.23
2023-04-29T03:37:33.013Z,95.49
2023-04-29T03:40:00.673Z,95.74
2023-04-29T03:42:29.717Z,95.64
2023-04-29T03:44:57.549Z,95.65
2023-04-29T03:47:25.412Z,95.24
2023-04-29T03:49:53.706Z,95.16
2023-04-29T03:52:21.719Z,94.96
2023-04-29T03:54:49.496Z,95.25
2023-04-29T03:57:17.259Z,95.37
2023-04-29T03:59:50.176Z,95.65
2023-04-29T04:02:18.345Z,96.18
2023-04-29T04:04:46.331Z,95.61
2023-04-29T04:07:14.368Z,95.24
2023-04-29T04:09:42.207Z,95.26
2023-04-29T04:12:10.033Z,94.94
2023-04-29T04:14:37.991Z,95.75
2023-04-29T04:17:07.625Z,95.32
2023-04-29T04:19:35.616Z,95.21
2023-04-29T04:22:04.777Z,95.34
2023-04-29T04:24:32.553Z,95.07
2023-04-29T04:27:01.055Z,94.94
2023-04-29T04:29:28.804Z,95.03
2023-04-29T04:31:56.814Z,94.40
2023-04-29T04:34:26.340Z,94.60
2023-04-29T04:36:54.129Z,94.35
2023-04-29T04:39:21.954Z,94.39
2023-04-29T04:41:49.802Z,94.59
2023-04-29T04:44:17.515Z,94.08
2023-04-29T04:46:45.254Z,94.30
2023-04-29T04:49:13.010Z,94.43
2023-04-29T04:51:45.202Z,94.27
2023-04-29T04:54:13.569Z,93.88
2023-04-29T04:56:41.358Z,93.61
2023-04-29T04:59:09.247Z,93.02
2023-04-29T05:01:37.410Z,93.36
2023-04-29T05:04:05.480Z,93.66
2023-04-29T05:06:33.258Z,93.04
2023-04-29T05:09:02.737Z,92.81
2023-04-29T05:11:30.504Z,92.74
2023-04-29T05:13:58.302Z,92.81
2023-04-29T05:16:26.280Z,91.96
2023-04-29T05:18:54.210Z,91.60
2023-04-29T05:21:21.912Z,90.87
2023-04-29T05:23:49.996Z,90.10
2023-04-29T05:26:19.074Z,89.88
2023-04-29T05:28:46.753Z,90.33
2023-04-29T05:31:14.504Z,89.96
2023-04-29T05:33:42.290Z,88.33
2023-04-29T05:36:10.380Z,87.10
2023-04-29T05:38:38.289Z,85.42
2023-04-29T05:41:06.306Z,84.85
2023-04-29T05:43:36.822Z,86.33
2023-04-29T05:46:04.780Z,82.15
2023-04-29T05:48:32.587Z,81.91
2023-04-29T05:51:00.285Z,81.86
2023-04-29T05:53:27.950Z,80.42
2023-04-29T05:55:55.759Z,80.39
2023-04-29T05:58:23.531Z,78.29
2023-04-29T06:00:52.631Z,78.30
2023-04-29T06:03:20.462Z,77.58
2023-04-29T06:05:48.464Z,76.30
2023-04-29T06:08:16.650Z,74.46
2023-04-29T06:10:44.318Z,73.39
2023-04-29T06:13:12.031Z,75.68
2023-04-29T06:15:40.080Z,71.54
2023-04-29T06:18:09.203Z,73.45
2023-04-29T06:20:37.675Z,73.75
2023-04-29T06:23:05.971Z,73.25
2023-04-29T06:25:34.069Z,69.70
2023-04-29T06:28:02.131Z,70.71
2023-04-29T06:30:30.012Z,70.59
2023-04-29T06:32:58.022Z,67.14
2023-04-29T06:35:27.185Z,70.98
2023-04-29T06:37:56.614Z,71.22
2023-04-29T06:40:24.310Z,64.66
2023-04-29T06:42:52.628Z,63.12
2023-04-29T06:45:20.312Z,65.07
2023-04-29T06:47:48.064Z,61.14
2023-04-29T06:50:15.951Z,61.11
2023-04-29T06:52:45.051Z,61.56
2023-04-29T06:55:13.071Z,61.95
2023-04-29T06:57:40.826Z,62.41
2023-04-29T07:00:09.681Z,62.83
2023-04-29T07:02:39.014Z,61.41
2023-04-29T07:05:07.975Z,61.08
2023-04-29T07:07:35.648Z,61.89
2023-04-29T07:10:05.056Z,62.90
2023-04-29T07:12:32.742Z,64.05
2023-04-29T07:15:01.720Z,66.61
2023-04-29T07:17:31.041Z,66.93
2023-04-29T07:19:58.963Z,67.44
2023-04-29T07:22:26.884Z,70.06
2023-04-29T07:24:55.407Z,66.50
2023-04-29T07:27:24.994Z,65.56
2023-04-29T07:29:52.724Z,67.21
2023-04-29T07:32:20.389Z,69.03
2023-04-29T07:34:48.765Z,71.46
2023-04-29T07:37:16.668Z,72.22
2023-04-29T07:39:44.398Z,73.15
2023-04-29T07:42:12.155Z,75.51
2023-04-29T07:44:41.298Z,74.87
2023-04-29T07:47:09.274Z,75.99
2023-04-29T07:49:37.031Z,75.50
2023-04-29T07:52:06.078Z,77.67
2023-04-29T07:54:33.836Z,78.57
2023-04-29T07:57:03.501Z,78.38
2023-04-29T07:59:31.344Z,76.85
2023-04-29T08:02:00.357Z,76.28
2023-04-29T08:04:28.160Z,75.96
2023-04-29T08:06:55.947Z,75.03
2023-04-29T08:09:23.741Z,75.53
2023-04-29T08:11:51.773Z,76.09
2023-04-29T08:14:19.453Z,77.32
2023-04-29T08:16:47.782Z,77.05
2023-04-29T08:19:16.820Z,76.35
2023-04-29T08:21:44.695Z,76.16
2023-04-29T08:24:12.411Z,74.23
2023-04-29T08:26:41.380Z,73.81
2023-04-29T08:29:09.245Z,73.99
2023-04-29T08:31:37.367Z,73.30
2023-04-29T08:34:05.292Z,71.60
2023-04-29T08:36:37.000Z,72.03
2023-04-29T08:39:04.815Z,72.61
2023-04-29T08:41:33.012Z,71.83
2023-04-29T08:44:00.916Z,71.92
2023-04-29T08:46:29.343Z,72.24
2023-04-29T08:48:58.206Z,71.81
2023-04-29T08:51:26.610Z,72.73
2023-04-29T08:53:57.577Z,71.28
2023-04-29T08:56:27.837Z,71.46
2023-04-29T08:58:58.875Z,71.76
2023-04-29T09:01:28.487Z,70.99
2023-04-29T09:04:08.623Z,70.62
2023-04-29T09:06:36.498Z,70.90
2023-04-29T09:09:06.513Z,70.38
2023-04-29T09:11:35.727Z,71.16
2023-04-29T09:14:04.699Z,71.42
2023-04-29T09:16:32.518Z,70.66
2023-04-29T09:19:00.258Z,70.70
2023-04-29T09:21:29.140Z,69.28
2023-04-29T09:23:58.660Z,69.25
2023-04-29T09:26:28.771Z,68.65
2023-04-29T09:29:09.824Z,68.93
2023-04-29T09:31:39.066Z,67.83
2023-04-29T09:34:07.119Z,68.68
2023-04-29T09:36:44.927Z,67.97
2023-04-29T09:39:16.262Z,67.71
2023-04-29T09:42:02.774Z,66.06
2023-04-29T09:44:34.523Z,65.68
2023-04-29T09:47:04.031Z,65.51
2023-04-29T09:49:35.860Z,66.16
2023-04-29T09:52:04.979Z,66.34
2023-04-29T09:54:34.476Z,65.97
2023-04-29T09:57:05.911Z,65.54
2023-04-29T09:59:36.015Z,65.55
2023-04-29T10:02:11.560Z,64.23
2023-04-29T10:04:42.458Z,64.30
2023-04-29T10:07:11.090Z,63.87
2023-04-29T10:09:40.889Z,63.47
2023-04-29T10:12:11.022Z,64.67
2023-04-29T10:14:45.112Z,63.46
2023-04-29T10:17:17.947Z,64.53
2023-04-29T10:19:52.230Z,63.96
2023-04-29T10:22:26.947Z,64.65
2023-04-29T10:24:56.447Z,64.15
2023-04-29T10:27:26.528Z,64.74
2023-04-29T10:29:55.971Z,64.36
2023-04-29T10:32:24.805Z,63.46
2023-04-29T10:34:54.998Z,63.54
2023-04-29T10:37:24.007Z,63.27
2023-04-29T10:39:56.560Z,62.65
2023-04-29T10:42:44.309Z,62.96
2023-04-29T10:45:23.256Z,63.24
2023-04-29T10:48:10.142Z,62.92
2023-04-29T10:51:00.749Z,62.52
2023-04-29T10:53:29.538Z,62.32
2023-04-29T10:56:00.350Z,63.97
2023-04-29T10:58:40.541Z,63.00
2023-04-29T11:01:10.561Z,62.29
2023-04-29T11:03:50.332Z,64.27
2023-04-29T11:06:18.223Z,62.74
2023-04-29T11:08:45.872Z,63.28
2023-04-29T11:11:15.534Z,64.85
2023-04-29T11:13:47.863Z,63.99
2023-04-29T11:16:15.705Z,65.62
2023-04-29T11:19:07.872Z,65.38
2023-04-29T11:21:36.290Z,65.50
2023-04-29T11:24:06.324Z,64.87
2023-04-29T11:26:35.614Z,65.57
2023-04-29T11:29:06.182Z,66.32
2023-04-29T11:31:34.799Z,65.27
2023-04-29T11:34:04.889Z,66.11
2023-04-29T11:36:33.123Z,66.18
2023-04-29T11:39:01.883Z,67.19
2023-04-29T11:41:29.726Z,67.26
2023-04-29T11:43:58.375Z,66.19
2023-04-29T11:46:28.292Z,66.34
2023-04-29T11:48:58.875Z,65.21
2023-04-29T11:51:26.961Z,65.15
2023-04-29T11:53:54.634Z,65.97
2023-04-29T11:56:26.501Z,66.28
2023-04-29T11:58:57.698Z,66.06
2023-04-29T12:01:27.853Z,66.62
2023-04-29T12:03:59.849Z,65.87
2023-04-29T12:06:29.862Z,66.16
2023-04-29T12:09:00.409Z,66.32
2023-04-29T12:11:28.896Z,66.99
2023-04-29T12:13:57.141Z,67.28
2023-04-29T12:16:25.775Z,67.37
2023-04-29T12:18:55.279Z,66.80
2023-04-29T12:21:23.107Z,65.62
2023-04-29T12:23:52.488Z,66.06
2023-04-29T12:26:21.051Z,65.91
2023-04-29T12:28:50.493Z,65.65
2023-04-29T12:31:18.260Z,65.54
2023-04-29T12:33:45.925Z,65.46
2023-04-29T12:36:20.110Z,65.40
2023-04-29T12:38:48.869Z,64.61
2023-04-29T12:41:17.424Z,64.88
2023-04-29T12:43:45.479Z,64.96
2023-04-29T12:46:14.072Z,64.88
2023-04-29T12:48:43.608Z,64.30
2023-04-29T12:51:11.907Z,64.36
2023-04-29T12:53:41.088Z,63.87
2023-04-29T12:56:09.259Z,64.11
2023-04-29T12:58:37.168Z,63.69
2023-04-29T13:01:05.033Z,63.88
2023-04-29T13:03:34.288Z,63.94
2023-04-29T13:06:02.618Z,63.46
2023-04-29T13:08:30.276Z,62.79
2023-04-29T13:10:59.284Z,63.54
2023-04-29T13:13:27.570Z,63.30
2023-04-29T13:15:55.372Z,62.63
2023-04-29T13:18:23.256Z,62.13
2023-04-29T13:20:53.002Z,64.14
2023-04-29T13:23:21.064Z,64.28
2023-04-29T13:25:49.075Z,63.63
2023-04-29T13:28:18.183Z,63.20
2023-04-29T13:30:45.914Z,62.91
2023-04-29T13:33:13.807Z,62.93
2023-04-29T13:35:42.019Z,63.33
2023-04-29T13:38:10.324Z,63.61
2023-04-29T13:40:41.695Z,63.09
2023-04-29T13:43:15.026Z,63.15
2023-04-29T13:45:48.428Z,62.40
2023-04-29T13:48:44.228Z,62.08
2023-04-29T13:51:48.058Z,62.07
2023-04-29T14:03:58.665Z,62.14
2023-04-29T14:06:26.536Z,62.03
2023-04-29T14:08:54.209Z,61.86
2023-04-29T14:11:21.848Z,62.09
2023-04-29T14:13:49.532Z,61.60
2023-04-29T14:16:17.899Z,61.38
2023-04-29T14:18:47.044Z,61.17
2023-04-29T14:21:14.853Z,61.74
2023-04-29T14:23:42.467Z,61.18
2023-04-29T14:26:27.165Z,61.37
2023-04-29T14:28:58.265Z,60.94
2023-04-29T14:31:28.098Z,60.98
2023-04-29T14:33:58.384Z,60.65
2023-04-29T14:36:28.123Z,60.02
2023-04-29T14:38:55.851Z,59.78
2023-04-29T14:41:23.519Z,57.95
2023-04-29T14:43:51.180Z,56.83
2023-04-29T14:46:19.083Z,56.26
2023-04-29T14:48:46.892Z,56.32
2023-04-29T14:51:15.944Z,55.97
2023-04-29T14:53:43.994Z,55.39
2023-04-29T14:56:11.744Z,55.15
2023-04-29T14:58:39.422Z,58.09
2023-04-29T15:01:07.424Z,56.39
2023-04-29T15:03:43.513Z,57.03
2023-04-29T15:06:12.439Z,58.46
2023-04-29T15:08:41.756Z,55.96
2023-04-29T15:11:09.582Z,55.96
2023-04-29T15:13:37.570Z,55.74
2023-04-29T15:16:07.351Z,55.69
2023-04-29T15:18:35.426Z,56.26
2023-04-29T15:21:04.309Z,57.30
2023-04-29T15:23:33.008Z,57.66
2023-04-29T15:26:02.051Z,58.34
2023-04-29T15:28:29.698Z,58.00
2023-04-29T15:30:59.781Z,57.64
2023-04-29T15:33:27.407Z,58.39
2023-04-29T15:35:57.021Z,58.42
2023-04-29T15:38:24.779Z,58.92
2023-04-29T15:40:56.805Z,59.93
2023-04-29T15:43:26.489Z,59.49
2023-04-29T15:45:54.452Z,59.67
2023-04-29T15:48:22.117Z,59.47
2023-04-29T15:50:49.737Z,59.78
2023-04-29T15:53:17.397Z,59.01
2023-04-29T15:55:45.247Z,59.55
2023-04-29T15:58:12.944Z,59.84
2023-04-29T16:00:41.964Z,59.81
2023-04-29T16:03:09.806Z,60.63
2023-04-29T16:05:38.629Z,59.40
2023-04-29T16:08:06.813Z,59.70
2023-04-29T16:10:34.792Z,60.97
2023-04-29T16:13:02.597Z,60.78
2023-04-29T16:15:30.981Z,60.90
2023-04-29T16:18:01.365Z,62.40
2023-04-29T16:20:29.310Z,61.27
2023-04-29T16:22:57.124Z,62.05
2023-04-29T16:25:24.780Z,62.48
2023-04-29T16:27:52.497Z,63.53
2023-04-29T16:30:20.178Z,63.89
2023-04-29T16:32:48.015Z,64.68
2023-04-29T16:35:17.412Z,64.02
2023-04-29T16:37:45.126Z,62.95
2023-04-29T16:40:13.751Z,62.51
2023-04-29T16:42:41.488Z,62.49
2023-04-29T16:45:10.669Z,62.49
2023-04-29T16:47:40.713Z,61.66
2023-04-29T16:50:09.891Z,62.42
2023-04-29T16:52:38.981Z,62.19
2023-04-29T16:55:08.609Z,62.00
2023-04-29T16:57:36.236Z,62.98
2023-04-29T17:00:04.188Z,63.19
2023-04-29T17:02:31.900Z,62.95
2023-04-29T17:04:59.653Z,62.62
2023-04-29T17:07:27.329Z,62.58
2023-04-29T17:09:56.594Z,64.10
2023-04-29T17:12:24.390Z,63.61
2023-04-29T17:14:52.120Z,63.58
2023-04-29T17:17:19.834Z,64.54
2023-04-29T17:19:49.899Z,64.44
2023-04-29T17:22:18.083Z,64.66
2023-04-29T17:24:46.462Z,65.24
2023-04-29T17:27:15.713Z,64.42
2023-04-29T17:29:43.562Z,64.58
2023-04-29T17:32:13.357Z,64.62
2023-04-29T17:34:43.124Z,64.85
2023-04-29T17:37:11.309Z,64.53
2023-04-29T17:39:39.154Z,66.28
2023-04-29T17:42:07.547Z,65.90
2023-04-29T17:44:38.052Z,66.32
2023-04-29T17:47:06.396Z,67.42
2023-04-29T17:49:34.142Z,68.25
2023-04-29T17:52:04.200Z,68.25
2023-04-29T17:54:32.572Z,68.70
2023-04-29T17:57:02.103Z,69.74
2023-04-29T17:59:30.730Z,68.98
2023-04-29T18:02:00.185Z,68.66
2023-04-29T18:04:27.949Z,68.37
2023-04-29T18:06:55.698Z,69.06
2023-04-29T18:09:23.363Z,69.02
2023-04-29T18:11:51.152Z,70.23
2023-04-29T18:14:18.933Z,69.18
2023-04-29T18:16:46.838Z,69.89
2023-04-29T18:19:16.182Z,70.43
2023-04-29T18:21:44.076Z,69.49
2023-04-29T18:24:11.911Z,70.00
2023-04-29T18:26:39.722Z,70.82
2023-04-29T18:29:07.533Z,70.28
2023-04-29T18:31:35.509Z,69.77
2023-04-29T18:34:03.381Z,70.95
2023-04-29T18:36:33.377Z,70.97
2023-04-29T18:39:01.036Z,71.47
2023-04-29T18:41:28.715Z,71.95
2023-04-29T18:43:56.502Z,71.62
2023-04-29T18:46:24.479Z,72.43
2023-04-29T18:48:52.395Z,71.89
2023-04-29T18:51:22.232Z,72.48
2023-04-29T18:53:51.521Z,73.09
2023-04-29T18:56:19.301Z,73.64
2023-04-29T18:58:47.090Z,73.64
2023-04-29T19:01:15.000Z,73.16
2023-04-29T19:03:42.856Z,73.41
2023-04-29T19:06:10.658Z,73.46
2023-04-29T19:08:38.798Z,73.78
2023-04-29T19:11:08.087Z,73.98
2023-04-29T19:13:36.024Z,73.99
2023-04-29T19:16:03.766Z,74.56
2023-04-29T19:18:31.799Z,73.49
2023-04-29T19:20:59.777Z,74.02
2023-04-29T19:23:27.529Z,74.78
2023-04-29T19:25:55.505Z,74.80
2023-04-29T19:28:24.725Z,74.58
2023-04-29T19:30:52.709Z,74.42
2023-04-29T19:33:20.546Z,74.95
2023-04-29T19:35:48.405Z,74.53
2023-04-29T19:38:16.306Z,74.74
2023-04-29T19:40:44.370Z,74.32
2023-04-29T19:43:13.277Z,75.03
2023-04-29T19:45:42.270Z,75.10
2023-04-29T19:48:09.962Z,75.24
2023-04-29T19:50:37.599Z,74.98
2023-04-29T19:53:05.321Z,74.61
2023-04-29T19:55:33.776Z,74.60
2023-04-29T19:58:01.393Z,75.43
2023-04-29T20:00:29.131Z,74.98
2023-04-29T20:02:58.209Z,75.63
2023-04-29T20:05:26.137Z,75.42
2023-04-29T20:07:53.823Z,75.86
2023-04-29T20:10:22.011Z,75.39
2023-04-29T20:12:49.840Z,75.30
2023-04-29T20:15:17.821Z,75.40
2023-04-29T20:17:45.544Z,75.88
2023-04-29T20:20:14.665Z,74.90
2023-04-29T20:22:42.288Z,75.29
2023-04-29T20:25:10.706Z,75.28
2023-04-29T20:27:38.342Z,75.21
2023-04-29T20:30:08.759Z,75.52
2023-04-29T20:32:37.163Z,75.14
2023-04-29T20:35:05.670Z,75.45
2023-04-29T20:37:34.672Z,76.10
2023-04-29T20:40:02.334Z,75.73
2023-04-29T20:42:30.121Z,76.89
2023-04-29T20:44:57.987Z,76.32
2023-04-29T20:47:25.695Z,76.50
2023-04-29T20:49:53.421Z,76.36
2023-04-29T20:52:21.395Z,75.77
2023-04-29T20:54:51.808Z,75.37
2023-04-29T20:57:19.580Z,75.25
2023-04-29T20:59:47.331Z,74.77
2023-04-29T21:02:15.533Z,75.13
2023-04-29T21:04:43.159Z,75.49
2023-04-29T21:07:10.896Z,75.00
2023-04-29T21:09:38.560Z,74.76
2023-04-29T21:12:08.509Z,75.20
2023-04-29T21:14:37.417Z,74.80
2023-04-29T21:17:05.106Z,75.54
2023-04-29T21:19:32.761Z,75.50
2023-04-29T21:22:01.321Z,74.77
2023-04-29T21:24:30.859Z,74.18
2023-04-29T21:26:58.464Z,74.64
2023-04-29T21:29:27.538Z,74.74
2023-04-29T21:31:55.281Z,74.41
2023-04-29T21:34:23.060Z,74.66
2023-04-29T21:36:50.743Z,74.50
2023-04-29T21:39:18.733Z,74.24
2023-04-29T21:41:47.606Z,74.44
2023-04-29T21:44:15.409Z,74.01
2023-04-29T21:46:45.226Z,74.28
2023-04-29T21:49:12.960Z,74.03
2023-04-29T21:51:40.796Z,74.55
2023-04-29T21:54:08.630Z,74.30
2023-04-29T21:56:36.684Z,74.17
2023-04-29T21:59:04.439Z,73.70
2023-04-29T22:01:48.506Z,74.84
2023-04-29T22:04:17.671Z,74.57
2023-04-29T22:06:45.515Z,73.83
2023-04-29T22:09:13.433Z,73.84
2023-04-29T22:11:41.154Z,73.78
2023-04-29T22:14:08.884Z,73.62
2023-04-29T22:16:36.762Z,73.68
2023-04-29T22:19:04.537Z,73.57
2023-04-29T22:21:33.552Z,73.43
2023-04-29T22:24:01.149Z,73.00
2023-04-29T22:26:28.919Z,73.71
2023-04-29T22:28:56.968Z,74.32
2023-04-29T22:31:24.691Z,73.39
2023-04-29T22:33:52.349Z,72.98
2023-04-29T22:36:20.230Z,74.08
2023-04-29T22:38:49.180Z,73.40
2023-04-29T22:41:16.916Z,73.86
2023-04-29T22:43:44.559Z,73.44
2023-04-29T22:46:12.293Z,73.00
2023-04-29T22:48:39.980Z,73.50
2023-04-29T22:51:07.625Z,73.34
2023-04-29T22:53:35.314Z,73.35
2023-04-29T22:56:04.723Z,73.48
2023-04-29T22:58:33.652Z,73.10
2023-04-29T23:01:01.990Z,73.46
2023-04-29T23:03:29.768Z,72.77
2023-04-29T23:05:59.483Z,72.96
2023-04-29T23:08:27.694Z,72.65
2023-04-29T23:10:55.710Z,73.01
2023-04-29T23:13:24.865Z,73.48
2023-04-29T23:15:53.209Z,73.09
2023-04-29T23:18:20.906Z,72.60
2023-04-29T23:20:48.631Z,73.21
2023-04-29T23:23:16.283Z,73.13
2023-04-29T23:25:45.262Z,72.93
2023-04-29T23:28:13.034Z,73.19
2023-04-29T23:30:42.236Z,72.63
2023-04-29T23:33:10.174Z,73.15
2023-04-29T23:35:37.855Z,72.99
2023-04-29T23:38:05.681Z,72.34
2023-04-29T23:40:34.125Z,72.04
2023-04-29T23:43:01.852Z,71.70
2023-04-29T23:45:30.054Z,71.94
2023-04-29T23:47:59.144Z,71.77
2023-04-29T23:50:29.242Z,72.25
2023-04-29T23:52:56.910Z,72.09
2023-04-29T23:55:24.631Z,71.32
2023-04-29T23:57:52.373Z,70.87
